Weather at Nanga Ruan Airstrip

Public forecast

Using degrees Celsius for public forecast. Weather courtesy of forecast.io.

Closest aviation weather report (METAR) to Nanga Ruan Airstrip

Closest report is Simanggang Airport, 108.8 nm (201.4 km) WNW.

(retrieved 0 seconds ago)

Closest aviation forecast (TAF) to Nanga Ruan Airstrip

Closest forecast is Sibu Airport, 121.3 nm (224.7 km) NW.

2023/02/01 06:00 (retrieved 28 minutes ago)

TAF WBGS 010500Z 0106/0206 11005KT 9999 SCT016 TEMPO 0110/0115 3000 +TSRA FEW014 FEW015CB SCT030